Time;durP1;ratioP1;P1;durP2;ratioP2;P2;SDS_P1;SDS_P2;PMS_P1;PMS_P2;Temp;Humidity;BMP_temperature;BMP_pressure;BME280_temperature;BME280_humidity;BME280_pressure;Samples;Min_cycle;Max_cycle;Signal;HPM_P1;HPM_P2
2022/11/14 00:00:28;;;;;;;17.80;10.00;;;;;;;7.52;81.39;102557.55;1707540;84;25634;-62
2022/11/14 00:03:13;;;;;;;15.45;9.40;;;;;;;7.58;81.62;102553.23;1707290;83;26088;-61
2022/11/14 00:05:59;;;;;;;18.60;10.00;;;;;;;7.66;81.62;102556.41;1707518;84;25724;-61
2022/11/14 00:08:44;;;;;;;16.35;9.78;;;;;;;7.74;81.84;102553.38;1707440;84;28252;-62
2022/11/14 00:11:29;;;;;;;15.15;8.70;;;;;;;7.87;82.07;102552.77;1707089;83;25771;-61
2022/11/14 00:14:14;;;;;;;15.03;9.43;;;;;;;7.97;81.93;102546.91;1707405;84;25741;-61
2022/11/14 00:16:59;;;;;;;17.55;10.00;;;;;;;8.04;81.65;102543.91;1707298;84;26117;-61
2022/11/14 00:19:45;;;;;;;17.82;9.78;;;;;;;8.11;81.78;102548.02;1728538;82;25696;-62
2022/11/14 00:22:30;;;;;;;16.57;9.28;;;;;;;8.21;81.86;102551.09;1761108;81;27553;-62
2022/11/14 00:25:16;;;;;;;15.80;8.65;;;;;;;8.26;81.45;102551.75;1761057;81;25898;-61
2022/11/14 00:28:00;;;;;;;18.10;9.80;;;;;;;8.21;80.94;102547.07;1760963;81;25797;-61
2022/11/14 00:30:48;;;;;;;14.65;8.98;;;;;;;8.19;80.83;102544.48;1761115;81;28324;-62
2022/11/14 00:33:32;;;;;;;14.33;8.85;;;;;;;8.22;81.19;102544.79;1760789;81;25730;-61
2022/11/14 00:36:18;;;;;;;14.23;8.45;;;;;;;8.22;81.03;102542.99;1761153;81;27473;-62
2022/11/14 00:39:04;;;;;;;15.63;8.85;;;;;;;8.30;81.38;102545.27;1761008;81;25715;-62
2022/11/14 00:41:49;;;;;;;17.27;9.40;;;;;;;8.37;81.32;102547.17;1761088;81;25817;-62
2022/11/14 00:44:34;;;;;;;13.70;8.85;;;;;;;8.43;81.21;102546.85;1761090;81;26173;-62
2022/11/14 00:47:19;;;;;;;15.43;8.03;;;;;;;8.43;81.05;102545.05;1761041;81;25767;-62
2022/11/14 00:50:06;;;;;;;15.78;8.68;;;;;;;8.49;81.24;102545.25;1732626;81;28641;-61
2022/11/14 00:52:51;;;;;;;14.83;9.23;;;;;;;8.54;81.29;102543.19;1716532;82;26028;-62
2022/11/14 00:55:36;;;;;;;16.95;8.73;;;;;;;8.61;81.33;102545.08;1755710;81;25832;-62
2022/11/14 00:58:22;;;;;;;15.25;9.20;;;;;;;8.63;80.97;102543.20;1729532;82;26114;-62
2022/11/14 01:01:07;;;;;;;14.55;8.48;;;;;;;8.64;80.86;102535.55;1722624;82;25795;-62
2022/11/14 01:03:53;;;;;;;13.35;7.90;;;;;;;8.68;81.00;102541.61;1709617;83;27708;-61
2022/11/14 01:06:38;;;;;;;14.73;8.00;;;;;;;8.67;80.60;102534.02;1709856;83;25813;-61
2022/11/14 01:09:23;;;;;;;12.80;7.53;;;;;;;8.64;80.36;102534.20;1709720;83;25523;-61
2022/11/14 01:12:09;;;;;;;11.50;7.35;;;;;;;8.60;79.94;102537.98;1709613;83;26472;-61
2022/11/14 01:14:53;;;;;;;13.55;8.28;;;;;;;8.55;80.03;102529.31;1709748;83;25758;-61
2022/11/14 01:17:39;;;;;;;13.85;8.15;;;;;;;8.56;80.12;102527.03;1710173;82;27477;-61
2022/11/14 01:20:24;;;;;;;14.53;8.58;;;;;;;8.60;80.41;102531.27;1721710;83;25898;-61
2022/11/14 01:23:12;;;;;;;12.50;7.60;;;;;;;8.62;80.30;102530.73;1721418;83;25762;-61
2022/11/14 01:26:11;;;;;;;12.25;7.67;;;;;;;8.63;80.20;102529.78;1721803;83;26206;-61
2022/11/14 01:28:56;;;;;;;12.85;6.90;;;;;;;8.64;80.27;102526.16;1721737;83;25989;-61
2022/11/14 01:31:41;;;;;;;11.90;6.83;;;;;;;8.60;80.00;102528.59;1721737;83;27420;-61
2022/11/14 01:34:28;;;;;;;13.72;7.58;;;;;;;8.58;79.77;102522.43;1721360;83;25762;-61
2022/11/14 01:37:13;;;;;;;13.25;7.50;;;;;;;8.57;80.19;102520.69;1721773;83;25740;-61
2022/11/14 01:39:58;;;;;;;12.07;7.53;;;;;;;8.60;80.33;102527.25;1721529;83;26113;-61
2022/11/14 01:43:12;;;;;;;16.17;8.48;;;;;;;8.63;80.51;102523.53;1721627;83;26480;-61
2022/11/14 01:46:05;;;;;;;16.90;8.83;;;;;;;8.66;80.51;102520.20;1700463;83;27511;-62
2022/11/14 01:49:04;;;;;;;16.12;8.63;;;;;;;8.61;80.21;102521.79;1713106;83;26204;-61
2022/11/14 01:52:03;;;;;;;10.30;7.22;;;;;;;8.63;80.25;102516.83;1683670;85;25540;-61
2022/11/14 01:54:53;;;;;;;12.05;7.65;;;;;;;8.56;79.45;102516.30;1697971;83;27192;-61
2022/11/14 01:57:43;;;;;;;14.13;7.67;;;;;;;8.36;79.12;102514.14;1699354;84;25772;-62
2022/11/14 02:00:28;;;;;;;11.33;6.95;;;;;;;8.15;79.21;102515.62;1699166;84;27499;-62
2022/11/14 02:05:53;;;;;;;15.10;8.38;;;;;;;8.12;80.28;102510.89;1886360;76;25552;-62
2022/11/14 02:08:39;;;;;;;11.40;6.83;;;;;;;8.12;80.39;102512.23;1857116;77;26430;-61
2022/11/14 02:11:30;;;;;;;13.28;8.45;;;;;;;8.02;80.30;102513.63;1857358;77;28156;-62
2022/11/14 02:14:15;;;;;;;11.15;8.15;;;;;;;7.98;80.77;102506.22;1857004;77;25691;-60
2022/11/14 02:17:00;;;;;;;11.55;7.33;;;;;;;7.98;80.85;102510.23;1857425;77;25763;-60
2022/11/14 02:20:13;;;;;;;11.97;6.47;;;;;;;7.99;81.11;102506.62;1816044;77;25748;-60
2022/11/14 02:22:58;;;;;;;14.00;7.83;;;;;;;7.86;80.79;102506.81;1811952;77;25728;-62
2022/11/14 02:25:43;;;;;;;13.10;7.00;;;;;;;7.66;81.05;102503.33;1811888;79;29584;-61
2022/11/14 02:28:29;;;;;;;10.60;6.72;;;;;;;7.52;81.60;102510.20;1811761;79;25469;-61
2022/11/14 02:31:15;;;;;;;10.20;6.75;;;;;;;7.44;82.23;102509.70;1811851;78;25747;-61
2022/11/14 02:34:01;;;;;;;13.13;7.20;;;;;;;7.34;82.53;102505.27;1811791;79;25906;-61
2022/11/14 02:36:46;;;;;;;11.38;6.40;;;;;;;7.30;83.05;102506.82;1811810;78;26160;-62
2022/11/14 02:39:32;;;;;;;10.08;6.92;;;;;;;7.23;83.53;102502.22;1811562;77;27462;-62
2022/11/14 02:42:17;;;;;;;11.20;6.67;;;;;;;7.19;84.22;102502.83;1811862;79;25705;-61
2022/11/14 02:45:02;;;;;;;13.58;6.95;;;;;;;7.16;83.96;102507.47;1811679;78;25750;-62
2022/11/14 02:47:47;;;;;;;10.13;6.05;;;;;;;7.18;84.00;102498.87;1811708;77;25741;-61
2022/11/14 02:50:33;;;;;;;10.15;6.15;;;;;;;7.22;84.40;102491.11;1854189;77;25697;-61
2022/11/14 02:53:18;;;;;;;10.80;6.55;;;;;;;7.28;84.50;102488.62;1843967;77;27525;-61
2022/11/14 02:56:05;;;;;;;9.03;6.08;;;;;;;7.40;84.85;102493.37;1812089;79;25804;-61
2022/11/14 02:58:51;;;;;;;10.43;5.55;;;;;;;7.48;84.55;102491.67;1811798;78;25878;-62
2022/11/14 03:01:36;;;;;;;11.22;5.87;;;;;;;7.42;84.06;102488.81;1811337;79;25858;-61
2022/11/14 03:04:21;;;;;;;8.38;5.53;;;;;;;7.40;84.19;102484.48;1815627;77;25701;-61
2022/11/14 03:07:06;;;;;;;12.10;6.53;;;;;;;7.36;84.25;102489.97;1827088;77;27471;-62
2022/11/14 03:09:51;;;;;;;10.00;6.92;;;;;;;7.40;84.20;102493.85;1827123;78;25575;-62
2022/11/14 03:12:37;;;;;;;11.90;7.00;;;;;;;7.47;84.45;102488.59;1827233;78;25443;-62
2022/11/14 03:15:23;;;;;;;8.78;5.75;;;;;;;7.53;84.44;102485.61;1826843;78;25736;-62
2022/11/14 03:18:09;;;;;;;10.82;6.85;;;;;;;7.54;84.22;102483.34;1833015;76;25844;-62
2022/11/14 03:20:55;;;;;;;8.35;6.12;;;;;;;7.54;84.26;102486.02;1854303;76;27462;-62
2022/11/14 03:23:41;;;;;;;10.03;5.75;;;;;;;7.65;84.79;102481.50;1854637;77;25732;-62
2022/11/14 03:26:26;;;;;;;9.95;5.78;;;;;;;7.77;84.83;102480.02;1854443;77;25775;-62
2022/11/14 03:29:11;;;;;;;8.95;5.47;;;;;;;7.88;84.93;102483.05;1854500;76;26444;-62
2022/11/14 03:31:56;;;;;;;9.55;5.95;;;;;;;7.94;84.39;102488.09;1854429;77;25522;-62
2022/11/14 03:34:42;;;;;;;9.75;6.30;;;;;;;7.97;84.09;102489.28;1854384;77;27424;-62
2022/11/14 03:37:28;;;;;;;10.72;5.97;;;;;;;7.99;83.71;102480.67;1854407;76;25719;-61
2022/11/14 03:40:13;;;;;;;8.48;6.03;;;;;;;7.98;83.62;102487.45;1854391;77;26510;-62
2022/11/14 03:42:58;;;;;;;7.78;5.72;;;;;;;8.01;83.70;102477.94;1854618;77;25731;-61
2022/11/14 03:45:43;;;;;;;9.80;5.53;;;;;;;8.08;83.82;102481.14;1854441;77;25660;-61
2022/11/14 03:48:29;;;;;;;6.85;5.08;;;;;;;8.00;83.04;102482.89;1852988;77;27538;-61
2022/11/14 03:51:14;;;;;;;10.23;5.12;;;;;;;7.87;82.78;102477.73;1832336;78;25633;-61
2022/11/14 03:54:00;;;;;;;6.40;4.45;;;;;;;7.79;82.90;102471.44;1828962;77;25808;-61
2022/11/14 03:56:45;;;;;;;9.40;5.28;;;;;;;7.71;83.25;102473.64;1826402;78;25456;-61
2022/11/14 03:59:31;;;;;;;7.33;5.53;;;;;;;7.60;83.39;102475.48;1826380;77;25789;-61
2022/11/14 04:02:16;;;;;;;8.75;5.00;;;;;;;7.52;83.45;102474.05;1826568;78;27550;-61
2022/11/14 04:05:01;;;;;;;8.23;4.97;;;;;;;7.51;83.89;102473.65;1823279;77;25865;-61
2022/11/14 04:07:46;;;;;;;6.67;4.72;;;;;;;7.41;84.29;102465.66;1811006;77;25745;-62
2022/11/14 04:10:31;;;;;;;8.48;4.75;;;;;;;7.32;84.76;102463.42;1811131;79;25737;-61
2022/11/14 04:13:16;;;;;;;10.50;5.55;;;;;;;7.27;84.95;102458.28;1811299;79;26351;-61
2022/11/14 04:16:01;;;;;;;8.28;4.35;;;;;;;7.24;85.50;102466.48;1811244;78;27545;-61
2022/11/14 04:18:46;;;;;;;11.65;5.65;;;;;;;7.22;85.25;102468.84;1816083;78;25785;-62
2022/11/14 04:21:32;;;;;;;11.20;6.28;;;;;;;7.23;85.51;102467.88;1821028;78;25642;-62
2022/11/14 04:24:17;;;;;;;6.40;4.50;;;;;;;7.22;85.70;102461.66;1820959;78;25666;-61
2022/11/14 04:27:02;;;;;;;8.45;5.33;;;;;;;7.21;85.86;102462.60;1821257;78;25869;-61
2022/11/14 04:29:47;;;;;;;6.80;5.00;;;;;;;7.19;86.11;102461.34;1821156;78;27524;-61
2022/11/14 04:32:32;;;;;;;6.30;4.80;;;;;;;7.25;86.07;102460.19;1820983;78;25828;-61
2022/11/14 04:35:18;;;;;;;8.58;5.05;;;;;;;7.36;86.04;102456.98;1821044;78;25725;-61
2022/11/14 04:38:03;;;;;;;7.85;4.70;;;;;;;7.46;86.03;102462.30;1820963;78;27290;-61
2022/11/14 04:40:51;;;;;;;7.62;4.58;;;;;;;7.50;85.82;102455.84;1821145;78;25827;-61
2022/11/14 04:43:36;;;;;;;11.97;5.10;;;;;;;7.46;85.53;102453.39;1821304;78;27477;-61
2022/11/14 04:46:21;;;;;;;7.05;5.83;;;;;;;7.49;85.51;102455.92;1821039;78;25784;-61
2022/11/14 04:49:06;;;;;;;8.98;6.15;;;;;;;7.61;85.81;102452.66;1832949;77;25775;-61
2022/11/14 04:51:51;;;;;;;13.08;8.38;;;;;;;7.72;85.89;102457.48;1856437;77;25463;-61
2022/11/14 04:54:37;;;;;;;9.68;6.22;;;;;;;7.81;85.96;102455.68;1818849;77;25806;-61
2022/11/14 04:57:22;;;;;;;15.65;8.73;;;;;;;7.92;85.76;102463.66;1810998;79;27468;-61
2022/11/14 05:00:09;;;;;;;9.60;5.97;;;;;;;7.99;85.45;102464.59;1811086;78;25696;-61
2022/11/14 05:03:00;;;;;;;14.63;8.15;;;;;;;8.01;84.60;102463.64;1811201;77;25434;-61
2022/11/14 05:05:45;;;;;;;10.48;6.83;;;;;;;7.98;84.45;102464.67;1813540;77;25698;-61
2022/11/14 05:08:30;;;;;;;11.18;6.00;;;;;;;8.01;84.53;102464.98;1826478;78;25707;-61
2022/11/14 05:11:18;;;;;;;10.25;6.50;;;;;;;8.03;84.15;102470.66;1826329;77;27522;-61
2022/11/14 05:14:03;;;;;;;10.32;7.05;;;;;;;8.07;84.37;102473.59;1826366;78;25678;-61
2022/11/14 05:16:48;;;;;;;10.68;6.70;;;;;;;8.13;84.52;102467.05;1826200;78;25649;-61
2022/11/14 05:19:34;;;;;;;12.23;5.60;;;;;;;8.05;83.33;102471.94;1820486;77;26035;-62
2022/11/14 05:22:19;;;;;;;9.88;5.42;;;;;;;8.06;83.86;102469.17;1819143;78;25853;-62
2022/11/14 05:25:07;;;;;;;8.60;5.15;;;;;;;8.12;83.79;102470.67;1819145;78;27472;-62
2022/11/14 05:27:52;;;;;;;10.38;5.33;;;;;;;8.19;83.98;102472.09;1818780;77;25718;-62
2022/11/14 05:30:37;;;;;;;9.03;5.17;;;;;;;8.16;83.46;102473.58;1819159;78;25772;-61
2022/11/14 05:33:22;;;;;;;8.88;5.25;;;;;;;8.12;83.01;102473.36;1818650;78;25796;-62
2022/11/14 05:36:11;;;;;;;10.55;5.42;;;;;;;8.09;83.25;102473.50;1819155;78;25492;-61
2022/11/14 05:38:57;;;;;;;10.85;5.58;;;;;;;8.11;83.42;102476.49;1818981;77;27518;-62
2022/11/14 05:41:42;;;;;;;14.90;5.75;;;;;;;8.20;83.77;102475.66;1819029;77;27303;-62
2022/11/14 05:44:27;;;;;;;10.13;5.15;;;;;;;8.27;83.70;102470.37;1819114;78;25855;-61
2022/11/14 05:47:12;;;;;;;9.93;5.92;;;;;;;8.26;82.92;102472.66;1818629;78;25887;-61
2022/11/14 05:49:57;;;;;;;10.70;6.33;;;;;;;8.31;83.14;102479.97;1828438;78;25859;-62
2022/11/14 05:52:42;;;;;;;20.75;13.83;;;;;;;8.34;83.01;102481.66;1831571;77;27450;-61
2022/11/14 05:55:28;;;;;;;14.35;8.60;;;;;;;8.35;83.04;102485.59;1826294;78;25819;-62
2022/11/14 05:58:13;;;;;;;12.45;7.37;;;;;;;8.38;82.88;102484.55;1825974;78;25568;-62
2022/11/14 06:01:11;;;;;;;7.55;5.53;;;;;;;8.40;82.94;102483.52;1826339;78;25721;-62
2022/11/14 06:03:56;;;;;;;8.28;5.05;;;;;;;8.42;82.45;102488.82;1826430;77;25727;-61
2022/11/14 06:06:41;;;;;;;6.95;4.87;;;;;;;8.43;82.60;102484.71;1826303;78;27458;-62
2022/11/14 06:09:26;;;;;;;12.25;6.65;;;;;;;8.46;82.59;102489.04;1826081;77;25770;-62
2022/11/14 06:12:11;;;;;;;9.93;8.23;;;;;;;8.43;81.92;102491.41;1825869;78;25768;-62
2022/11/14 06:14:56;;;;;;;10.13;6.87;;;;;;;8.38;82.14;102490.77;1826305;78;25738;-62
2022/11/14 06:17:41;;;;;;;9.00;5.75;;;;;;;8.40;82.24;102491.56;1825843;77;25724;-62
2022/11/14 06:20:27;;;;;;;9.00;6.80;;;;;;;8.41;81.96;102492.45;1819095;77;27514;-62
2022/11/14 06:23:12;;;;;;;8.65;5.62;;;;;;;8.38;81.63;102492.59;1819035;78;25737;-62
2022/11/14 06:26:02;;;;;;;13.18;6.85;;;;;;;8.36;81.68;102492.69;1819054;78;25690;-62
2022/11/14 06:28:50;;;;;;;9.58;5.90;;;;;;;8.35;81.39;102498.99;1818804;78;27280;-62
2022/11/14 06:31:36;;;;;;;6.45;4.83;;;;;;;8.32;81.54;102497.80;1819294;78;25261;-61
2022/11/14 06:34:21;;;;;;;7.20;4.90;;;;;;;8.28;81.49;102492.22;1818979;78;27454;-62
2022/11/14 06:37:06;;;;;;;8.00;4.97;;;;;;;8.33;81.95;102498.20;1818742;77;26483;-61
2022/11/14 06:39:51;;;;;;;8.05;5.25;;;;;;;8.43;82.07;102498.12;1836600;76;25779;-61
2022/11/14 06:42:37;;;;;;;7.37;5.05;;;;;;;8.45;81.79;102498.91;1843169;77;25907;-61
2022/11/14 06:45:21;;;;;;;12.18;5.90;;;;;;;8.30;80.67;102497.00;1842762;77;25776;-61
2022/11/14 06:48:07;;;;;;;10.30;6.70;;;;;;;8.20;80.82;102500.64;1843100;77;27443;-61
2022/11/14 06:50:54;;;;;;;7.28;4.80;;;;;;;8.17;81.10;102501.27;1820205;78;27198;-61
2022/11/14 06:53:40;;;;;;;7.75;5.50;;;;;;;8.12;81.02;102497.00;1823071;77;25803;-61
2022/11/14 06:56:25;;;;;;;7.62;5.00;;;;;;;7.99;80.97;102494.07;1826616;78;25804;-61
2022/11/14 06:59:10;;;;;;;6.75;5.00;;;;;;;7.90;81.33;102503.05;1826137;78;25905;-61
2022/11/14 07:01:56;;;;;;;8.90;4.67;;;;;;;7.86;81.96;102498.77;1826275;77;27588;-61
2022/11/14 07:04:41;;;;;;;6.90;5.20;;;;;;;7.76;81.92;102497.89;1826159;77;25737;-61
2022/11/14 07:07:26;;;;;;;7.75;5.50;;;;;;;7.80;82.15;102495.47;1826524;78;25634;-61
2022/11/14 07:10:12;;;;;;;8.50;5.92;;;;;;;7.87;82.25;102496.49;1826205;77;25824;-61
2022/11/14 07:12:56;;;;;;;10.55;6.08;;;;;;;7.84;82.10;102492.16;1823394;78;25759;-61
2022/11/14 07:15:52;;;;;;;10.28;6.08;;;;;;;7.80;82.35;102498.14;1823347;78;27522;-61
2022/11/14 07:18:38;;;;;;;9.80;5.10;;;;;;;7.74;82.39;102501.14;1821295;78;25802;-61
2022/11/14 07:21:25;;;;;;;10.70;5.05;;;;;;;7.84;82.72;102501.05;1818988;77;25854;-62
2022/11/14 07:24:10;;;;;;;11.15;5.90;;;;;;;7.92;82.61;102507.87;1819166;78;25824;-61
2022/11/14 07:26:55;;;;;;;7.95;5.22;;;;;;;8.05;82.94;102500.94;1818913;78;25745;-61
2022/11/14 07:29:41;;;;;;;8.30;5.03;;;;;;;8.20;82.79;102496.62;1819245;77;27484;-62
2022/11/14 07:32:26;;;;;;;7.67;5.35;;;;;;;8.33;82.79;102495.52;1819174;78;25695;-62
2022/11/14 07:35:11;;;;;;;8.58;5.62;;;;;;;8.48;82.67;102497.03;1818773;78;25781;-63
2022/11/14 07:38:02;;;;;;;5.97;4.28;;;;;;;8.59;82.39;102497.34;1818972;77;26282;-62
2022/11/14 07:41:03;;;;;;;7.58;5.30;;;;;;;8.70;82.12;102495.42;1842938;77;27303;-62
2022/11/14 07:43:48;;;;;;;8.03;5.05;;;;;;;8.77;81.79;102488.80;1843361;77;27425;-61
2022/11/14 07:46:33;;;;;;;8.00;5.08;;;;;;;8.85;81.88;102496.42;1843030;77;26181;-62
2022/11/14 07:49:19;;;;;;;6.40;4.20;;;;;;;8.96;81.89;102491.35;1846580;77;25706;-61
2022/11/14 07:52:04;;;;;;;5.10;4.40;;;;;;;9.04;80.88;102494.48;1851414;77;26458;-62
2022/11/14 07:54:49;;;;;;;9.08;5.50;;;;;;;9.01;80.18;102500.01;1828409;77;25713;-61
2022/11/14 07:57:35;;;;;;;7.50;5.47;;;;;;;8.95;80.01;102496.33;1826412;77;27479;-62
2022/11/14 08:00:21;;;;;;;8.90;4.80;;;;;;;8.93;80.24;102492.39;1826387;78;25967;-62
2022/11/14 08:03:07;;;;;;;7.65;5.15;;;;;;;8.96;80.21;102491.84;1826341;77;25720;-62
2022/11/14 08:06:06;;;;;;;8.78;5.47;;;;;;;8.95;80.09;102490.95;1826660;78;25733;-62
2022/11/14 08:08:51;;;;;;;10.82;6.00;;;;;;;8.96;80.17;102487.33;1826342;78;25674;-62
2022/11/14 08:11:47;;;;;;;6.78;5.05;;;;;;;9.00;79.95;102496.08;1826207;78;27623;-62
2022/11/14 08:14:33;;;;;;;8.65;6.15;;;;;;;9.01;79.81;102494.64;1826221;77;25662;-62
2022/11/14 08:17:21;;;;;;;8.53;5.47;;;;;;;8.98;79.57;102494.83;1826623;78;25507;-62
2022/11/14 08:20:09;;;;;;;7.78;5.30;;;;;;;8.96;79.53;102495.38;1820658;78;25689;-62
2022/11/14 08:23:03;;;;;;;10.45;6.08;;;;;;;8.93;79.39;102503.12;1820819;78;25632;-61
2022/11/14 08:25:48;;;;;;;6.65;5.12;;;;;;;8.93;79.31;102504.47;1820890;78;27598;-62
2022/11/14 08:28:33;;;;;;;13.45;7.22;;;;;;;8.95;79.04;102505.72;1820720;78;25907;-61
2022/11/14 08:31:20;;;;;;;25.20;14.78;;;;;;;8.92;79.10;102501.39;1820764;78;25745;-62
2022/11/14 08:34:05;;;;;;;12.20;7.62;;;;;;;8.98;79.13;102502.00;1820719;78;26645;-61
2022/11/14 08:36:50;;;;;;;8.93;6.22;;;;;;;9.03;79.29;102503.97;1820972;78;25768;-62
2022/11/14 08:39:35;;;;;;;7.72;5.37;;;;;;;9.06;79.31;102505.13;1841440;76;27463;-62
2022/11/14 08:42:21;;;;;;;9.83;7.03;;;;;;;9.11;79.42;102502.19;1851381;77;25805;-62
2022/11/14 08:45:08;;;;;;;13.18;6.25;;;;;;;9.15;79.35;102494.37;1845339;77;25928;-62
2022/11/14 08:47:53;;;;;;;8.35;5.85;;;;;;;9.23;79.36;102498.84;1837791;77;26287;-62
2022/11/14 08:50:38;;;;;;;8.53;6.10;;;;;;;9.26;78.92;102503.17;1848969;77;26490;-62
2022/11/14 08:53:24;;;;;;;12.50;7.28;;;;;;;9.27;78.59;102496.39;1830878;77;28171;-61
2022/11/14 08:56:10;;;;;;;13.15;7.42;;;;;;;9.34;79.11;102496.44;1823107;76;25778;-62
2022/11/14 08:58:56;;;;;;;9.38;6.30;;;;;;;9.44;79.23;102493.23;1837511;76;25846;-62
2022/11/14 09:01:42;;;;;;;9.10;6.25;;;;;;;9.52;78.93;102489.14;1854359;77;25736;-61
2022/11/14 09:04:27;;;;;;;9.73;6.58;;;;;;;9.55;78.51;102486.75;1852988;76;25504;-62
2022/11/14 09:07:12;;;;;;;12.45;7.42;;;;;;;9.62;78.65;102478.76;1832834;77;27519;-62
2022/11/14 09:09:57;;;;;;;11.65;7.53;;;;;;;9.73;78.63;102474.59;1842799;77;25823;-62
2022/11/14 09:12:42;;;;;;;10.98;6.20;;;;;;;9.84;78.51;102470.78;1843039;77;26001;-62
2022/11/14 09:15:29;;;;;;;10.70;6.33;;;;;;;9.90;78.43;102467.75;1835108;77;25672;-62
2022/11/14 09:18:14;;;;;;;10.38;6.58;;;;;;;9.99;78.16;102456.45;1822345;77;26270;-62
2022/11/14 09:21:07;;;;;;;11.22;7.12;;;;;;;10.01;77.52;102453.17;1808223;78;27463;-61
2022/11/14 09:23:52;;;;;;;12.35;6.72;;;;;;;10.06;77.08;102448.02;1833839;77;25728;-62
2022/11/14 09:26:37;;;;;;;16.55;7.75;;;;;;;10.09;76.76;102451.39;1843034;77;25820;-62
2022/11/14 09:29:22;;;;;;;10.93;7.17;;;;;;;10.13;76.57;102451.57;1838917;77;25753;-61
2022/11/14 09:32:08;;;;;;;17.27;9.80;;;;;;;10.17;76.09;102441.52;1841002;77;25768;-62
2022/11/14 09:34:53;;;;;;;15.55;8.68;;;;;;;10.21;75.83;102444.89;1831121;77;27459;-61
2022/11/14 09:37:39;;;;;;;18.57;9.95;;;;;;;10.22;75.66;102442.59;1821444;77;25725;-61
2022/11/14 09:40:24;;;;;;;18.27;10.20;;;;;;;10.21;75.06;102445.74;1823580;77;25694;-61
2022/11/14 09:43:15;;;;;;;21.73;10.23;;;;;;;10.15;74.80;102438.91;1822438;78;25850;-62
2022/11/14 09:46:02;;;;;;;13.32;8.73;;;;;;;10.10;74.64;102436.10;1822059;78;25746;-62
2022/11/14 09:48:49;;;;;;;13.88;8.28;;;;;;;10.08;74.92;102436.70;1826488;77;27425;-62
2022/11/14 09:51:39;;;;;;;17.45;8.18;;;;;;;10.07;74.82;102428.24;1842929;77;25777;-62
2022/11/14 09:54:28;;;;;;;13.03;7.78;;;;;;;10.01;74.50;102419.56;1834402;77;25487;-62
2022/11/14 09:57:17;;;;;;;10.72;6.90;;;;;;;10.05;74.48;102424.77;1794431;78;25775;-62
2022/11/14 10:00:19;;;;;;;16.50;9.10;;;;;;;10.05;74.51;102423.42;1828306;77;25764;-61
2022/11/14 10:03:41;;;;;;;15.68;9.53;;;;;;;10.07;74.56;102422.86;1834385;77;27478;-62
2022/11/14 10:06:34;;;;;;;11.85;8.10;;;;;;;10.11;74.61;102419.02;1841974;77;25483;-61
2022/11/14 10:10:02;;;;;;;17.60;9.40;;;;;;;10.11;74.19;102415.86;1816638;78;25575;-62
2022/11/14 10:13:13;;;;;;;11.10;7.70;;;;;;;10.13;74.05;102416.61;1831007;77;25846;-62
2022/11/14 10:16:15;;;;;;;13.58;8.20;;;;;;;10.11;73.21;102413.63;1831221;77;25795;-62
2022/11/14 10:19:34;;;;;;;11.20;7.10;;;;;;;10.09;73.20;102407.47;1856327;77;27505;-62
2022/11/14 10:22:43;;;;;;;19.10;10.25;;;;;;;10.12;71.98;102403.27;1820814;77;26106;-61
2022/11/14 10:25:50;;;;;;;22.55;10.70;;;;;;;10.23;72.19;102402.61;1810971;79;25649;-62
2022/11/14 10:29:09;;;;;;;15.38;7.20;;;;;;;10.35;72.39;102399.17;1834550;77;25493;-62
2022/11/14 10:32:05;;;;;;;20.68;6.50;;;;;;;10.45;72.25;102399.48;1856445;77;25656;-61
2022/11/14 10:35:28;;;;;;;15.80;6.37;;;;;;;10.59;71.96;102390.09;1817349;77;27521;-61
2022/11/14 10:38:40;;;;;;;14.60;6.78;;;;;;;10.63;71.73;102389.41;1816632;76;25758;-61
2022/11/14 10:41:28;;;;;;;23.05;6.92;;;;;;;10.77;70.79;102389.89;1815888;78;25697;-61
2022/11/14 10:44:17;;;;;;;15.23;6.60;;;;;;;10.87;70.57;102392.37;1816420;78;26486;-61
2022/11/14 10:47:07;;;;;;;23.62;8.13;;;;;;;10.98;70.29;102386.79;1827723;77;25693;-61
2022/11/14 10:49:56;;;;;;;21.52;7.35;;;;;;;11.03;69.07;102380.61;1794657;78;28373;-61
2022/11/14 10:52:44;;;;;;;28.42;8.20;;;;;;;11.11;69.39;102380.97;1825857;77;25747;-61
2022/11/14 10:55:29;;;;;;;24.50;7.28;;;;;;;11.07;67.85;102381.66;1811120;77;25817;-62
2022/11/14 10:58:15;;;;;;;9.70;5.28;;;;;;;11.01;67.97;102380.72;1811147;77;25870;-62
2022/11/14 11:01:40;;;;;;;16.57;5.67;;;;;;;10.91;66.18;102371.50;1817221;77;25938;-62
2022/11/14 11:04:35;;;;;;;12.35;5.55;;;;;;;10.86;65.84;102369.57;1816422;79;27423;-62
2022/11/14 11:13:37;;;;;;;16.00;5.53;;;;;;;11.05;66.24;102371.46;1855886;77;25642;-61
2022/11/14 11:16:25;;;;;;;8.78;5.72;;;;;;;11.15;66.27;102373.55;1856517;77;25494;-61
2022/11/14 11:19:24;;;;;;;8.13;6.05;;;;;;;11.16;65.53;102364.52;1815202;77;28298;-62
2022/11/14 11:22:31;;;;;;;15.63;6.65;;;;;;;11.18;65.60;102361.24;1811159;78;25877;-62
2022/11/14 11:25:29;;;;;;;14.85;6.78;;;;;;;11.21;65.53;102362.36;1811215;77;25753;-62
2022/11/14 11:28:20;;;;;;;25.25;6.60;;;;;;;11.24;65.49;102364.87;1811245;79;25678;-62
2022/11/14 11:31:09;;;;;;;33.25;5.97;;;;;;;11.26;65.27;102361.09;1815391;77;27350;-61
2022/11/14 11:33:54;;;;;;;8.73;4.90;;;;;;;11.28;64.25;102361.87;1856535;77;27457;-62
2022/11/14 11:36:45;;;;;;;12.60;4.00;;;;;;;11.28;64.72;102352.94;1838792;77;25738;-62
2022/11/14 11:39:35;;;;;;;9.43;5.45;;;;;;;11.31;63.94;102348.67;1817787;77;26431;-62
2022/11/14 11:42:28;;;;;;;13.50;5.37;;;;;;;11.30;63.77;102347.44;1846038;77;25631;-62
2022/11/14 11:45:17;;;;;;;24.00;7.00;;;;;;;11.27;63.50;102343.97;1852499;77;25693;-62
2022/11/14 11:48:16;;;;;;;7.40;5.40;;;;;;;11.28;63.52;102344.36;1851457;76;27563;-62
2022/11/14 11:51:04;;;;;;;9.80;6.10;;;;;;;11.26;62.95;102344.94;1822751;78;25495;-62
2022/11/14 11:54:03;;;;;;;9.75;6.25;;;;;;;11.20;62.58;102331.03;1816964;77;25610;-62
2022/11/14 11:56:53;;;;;;;15.90;8.03;;;;;;;11.18;63.12;102331.61;1842212;77;25636;-62
2022/11/14 11:59:46;;;;;;;17.05;7.30;;;;;;;11.21;62.72;102336.31;1834353;77;25804;-62
2022/11/14 12:02:31;;;;;;;19.48;8.93;;;;;;;11.16;62.70;102333.53;1828186;77;27486;-61
2022/11/14 12:05:37;;;;;;;18.87;8.15;;;;;;;11.15;62.93;102332.69;1823419;77;27208;-61
2022/11/14 12:08:55;;;;;;;19.30;7.42;;;;;;;11.16;62.97;102331.69;1814259;77;25905;-61
2022/11/14 12:11:48;;;;;;;16.50;7.12;;;;;;;11.12;62.71;102326.14;1845939;75;25728;-62
2022/11/14 12:14:53;;;;;;;18.05;7.47;;;;;;;11.10;62.58;102332.11;1850544;76;25956;-62
2022/11/14 12:18:07;;;;;;;17.25;7.67;;;;;;;11.06;62.59;102332.80;1834479;77;29574;-61
2022/11/14 12:20:58;;;;;;;14.65;6.87;;;;;;;11.04;62.82;102325.30;1791387;78;25722;-62
2022/11/14 12:24:15;;;;;;;14.78;6.80;;;;;;;10.98;62.32;102318.13;1803010;78;26044;-62
2022/11/14 12:27:36;;;;;;;18.60;7.33;;;;;;;10.96;62.52;102321.78;1777496;80;26343;-62
2022/11/14 12:30:24;;;;;;;20.15;7.92;;;;;;;10.97;62.71;102318.59;1793277;78;26066;-62
2022/11/14 12:33:20;;;;;;;25.08;9.85;;;;;;;10.95;62.80;102310.63;1794971;79;27366;-62
2022/11/14 12:36:11;;;;;;;8.20;5.70;;;;;;;10.92;61.97;102322.08;1783497;78;25754;-62
2022/11/14 12:38:58;;;;;;;9.58;6.22;;;;;;;10.89;62.22;102318.23;1791854;78;26785;-62
2022/11/14 12:41:43;;;;;;;12.58;6.10;;;;;;;10.85;62.34;102312.19;1816609;79;25796;-62
2022/11/14 12:44:37;;;;;;;9.60;6.62;;;;;;;10.85;62.41;102316.22;1788244;78;27255;-62
2022/11/14 12:47:27;;;;;;;15.15;6.45;;;;;;;10.82;61.70;102315.56;1811880;78;28323;-62
2022/11/14 12:50:39;;;;;;;14.53;7.70;;;;;;;10.80;61.51;102315.17;1785822;79;25726;-62
2022/11/14 12:53:37;;;;;;;8.40;6.22;;;;;;;10.77;61.77;102315.36;1790452;78;25698;-61
2022/11/14 12:56:33;;;;;;;11.80;6.53;;;;;;;10.75;62.13;102318.66;1816530;78;25706;-62
2022/11/14 12:59:51;;;;;;;13.15;6.75;;;;;;;10.72;62.04;102313.93;1771885;78;25786;-62
2022/11/14 13:03:05;;;;;;;19.82;6.75;;;;;;;10.69;62.15;102307.42;1785019;79;27429;-61
2022/11/14 13:06:18;;;;;;;19.62;6.87;;;;;;;10.63;61.96;102310.88;1777738;80;25509;-62
2022/11/14 13:09:21;;;;;;;11.78;6.37;;;;;;;10.59;61.87;102306.67;1777627;80;25786;-62
2022/11/14 13:22:38;;;;;;;10.53;7.08;;;;;;;10.61;60.35;102307.44;1759617;80;25755;-61
2022/11/14 13:25:24;;;;;;;13.10;7.70;;;;;;;10.55;60.32;102299.73;1759569;81;25802;-62
2022/11/14 13:28:44;;;;;;;19.80;8.08;;;;;;;10.51;60.28;102308.98;1759373;81;25759;-61